sensor_id;sensor_type;location;lat;lon;timestamp;P1;durP1;ratioP1;P2;durP2;ratioP2
5898;SDS011;2975;50.956;6.962;2023-06-14T00:02:13;6.80;;;4.53;;
5898;SDS011;2975;50.956;6.962;2023-06-14T00:04:40;7.73;;;4.07;;
5898;SDS011;2975;50.956;6.962;2023-06-14T00:07:06;5.47;;;4.27;;
5898;SDS011;2975;50.956;6.962;2023-06-14T00:09:38;4.50;;;4.10;;
5898;SDS011;2975;50.956;6.962;2023-06-14T00:12:04;4.77;;;4.20;;
5898;SDS011;2975;50.956;6.962;2023-06-14T00:14:31;5.53;;;3.90;;
5898;SDS011;2975;50.956;6.962;2023-06-14T00:16:56;5.03;;;4.07;;
5898;SDS011;2975;50.956;6.962;2023-06-14T00:19:23;9.40;;;5.17;;
5898;SDS011;2975;50.956;6.962;2023-06-14T00:21:50;5.17;;;4.07;;
5898;SDS011;2975;50.956;6.962;2023-06-14T00:24:16;7.10;;;4.27;;
5898;SDS011;2975;50.956;6.962;2023-06-14T00:26:42;4.87;;;4.17;;
5898;SDS011;2975;50.956;6.962;2023-06-14T00:29:08;7.80;;;3.93;;
5898;SDS011;2975;50.956;6.962;2023-06-14T00:31:33;6.60;;;4.17;;
5898;SDS011;2975;50.956;6.962;2023-06-14T00:33:59;8.23;;;4.83;;
5898;SDS011;2975;50.956;6.962;2023-06-14T00:36:25;4.87;;;3.70;;
5898;SDS011;2975;50.956;6.962;2023-06-14T00:38:50;4.40;;;4.00;;
5898;SDS011;2975;50.956;6.962;2023-06-14T00:41:16;6.47;;;4.20;;
5898;SDS011;2975;50.956;6.962;2023-06-14T00:43:42;5.63;;;3.83;;
5898;SDS011;2975;50.956;6.962;2023-06-14T00:46:07;6.10;;;4.17;;
5898;SDS011;2975;50.956;6.962;2023-06-14T00:48:33;5.93;;;3.80;;
5898;SDS011;2975;50.956;6.962;2023-06-14T00:51:00;4.80;;;4.30;;
5898;SDS011;2975;50.956;6.962;2023-06-14T00:53:29;5.50;;;3.77;;
5898;SDS011;2975;50.956;6.962;2023-06-14T00:55:56;5.13;;;4.57;;
5898;SDS011;2975;50.956;6.962;2023-06-14T00:58:22;7.67;;;4.30;;
5898;SDS011;2975;50.956;6.962;2023-06-14T01:00:48;4.57;;;3.57;;
5898;SDS011;2975;50.956;6.962;2023-06-14T01:03:13;6.07;;;4.30;;
5898;SDS011;2975;50.956;6.962;2023-06-14T01:05:46;6.33;;;4.30;;
5898;SDS011;2975;50.956;6.962;2023-06-14T01:08:28;4.83;;;4.07;;
5898;SDS011;2975;50.956;6.962;2023-06-14T01:11:04;5.20;;;4.00;;
5898;SDS011;2975;50.956;6.962;2023-06-14T01:13:36;6.20;;;4.27;;
5898;SDS011;2975;50.956;6.962;2023-06-14T01:16:05;5.77;;;4.50;;
5898;SDS011;2975;50.956;6.962;2023-06-14T01:18:32;7.40;;;3.97;;
5898;SDS011;2975;50.956;6.962;2023-06-14T01:20:59;4.77;;;4.10;;
5898;SDS011;2975;50.956;6.962;2023-06-14T01:23:30;6.47;;;4.50;;
5898;SDS011;2975;50.956;6.962;2023-06-14T01:25:57;5.07;;;4.10;;
5898;SDS011;2975;50.956;6.962;2023-06-14T01:28:24;5.80;;;3.93;;
5898;SDS011;2975;50.956;6.962;2023-06-14T01:30:52;4.93;;;3.93;;
5898;SDS011;2975;50.956;6.962;2023-06-14T01:33:23;7.20;;;5.00;;
5898;SDS011;2975;50.956;6.962;2023-06-14T01:35:51;5.73;;;4.70;;
5898;SDS011;2975;50.956;6.962;2023-06-14T01:38:19;6.67;;;4.00;;
5898;SDS011;2975;50.956;6.962;2023-06-14T01:40:52;5.63;;;4.40;;
5898;SDS011;2975;50.956;6.962;2023-06-14T01:43:20;6.23;;;4.07;;
5898;SDS011;2975;50.956;6.962;2023-06-14T01:45:47;4.90;;;4.37;;
5898;SDS011;2975;50.956;6.962;2023-06-14T01:48:14;4.63;;;4.00;;
5898;SDS011;2975;50.956;6.962;2023-06-14T01:50:40;5.87;;;4.10;;
5898;SDS011;2975;50.956;6.962;2023-06-14T01:53:09;4.73;;;4.23;;
5898;SDS011;2975;50.956;6.962;2023-06-14T01:55:35;6.43;;;4.27;;
5898;SDS011;2975;50.956;6.962;2023-06-14T01:58:05;4.63;;;4.10;;
5898;SDS011;2975;50.956;6.962;2023-06-14T02:00:31;6.03;;;4.00;;
5898;SDS011;2975;50.956;6.962;2023-06-14T02:02:57;7.27;;;4.67;;
5898;SDS011;2975;50.956;6.962;2023-06-14T02:05:22;5.03;;;3.67;;
5898;SDS011;2975;50.956;6.962;2023-06-14T02:07:48;4.97;;;4.30;;
5898;SDS011;2975;50.956;6.962;2023-06-14T02:10:15;8.57;;;4.70;;
5898;SDS011;2975;50.956;6.962;2023-06-14T02:12:42;4.80;;;4.20;;
5898;SDS011;2975;50.956;6.962;2023-06-14T02:15:09;6.43;;;4.60;;
5898;SDS011;2975;50.956;6.962;2023-06-14T02:17:41;5.50;;;4.40;;
5898;SDS011;2975;50.956;6.962;2023-06-14T02:20:07;7.03;;;4.27;;
5898;SDS011;2975;50.956;6.962;2023-06-14T02:22:34;4.67;;;4.03;;
5898;SDS011;2975;50.956;6.962;2023-06-14T02:25:00;7.13;;;5.00;;
5898;SDS011;2975;50.956;6.962;2023-06-14T02:27:25;8.03;;;4.33;;
5898;SDS011;2975;50.956;6.962;2023-06-14T02:29:51;7.20;;;4.07;;
5898;SDS011;2975;50.956;6.962;2023-06-14T02:32:16;6.50;;;4.03;;
5898;SDS011;2975;50.956;6.962;2023-06-14T02:34:42;5.43;;;4.10;;
5898;SDS011;2975;50.956;6.962;2023-06-14T02:37:08;4.90;;;3.87;;
5898;SDS011;2975;50.956;6.962;2023-06-14T02:39:34;4.70;;;3.70;;
5898;SDS011;2975;50.956;6.962;2023-06-14T02:42:00;9.33;;;4.13;;
5898;SDS011;2975;50.956;6.962;2023-06-14T02:44:26;6.23;;;4.17;;
5898;SDS011;2975;50.956;6.962;2023-06-14T02:46:53;7.47;;;4.17;;
5898;SDS011;2975;50.956;6.962;2023-06-14T02:49:19;6.53;;;3.80;;
5898;SDS011;2975;50.956;6.962;2023-06-14T02:51:45;9.17;;;4.07;;
5898;SDS011;2975;50.956;6.962;2023-06-14T02:54:10;4.53;;;3.57;;
5898;SDS011;2975;50.956;6.962;2023-06-14T02:56:36;6.53;;;4.03;;
5898;SDS011;2975;50.956;6.962;2023-06-14T02:59:02;5.87;;;3.77;;
5898;SDS011;2975;50.956;6.962;2023-06-14T03:01:27;4.53;;;3.60;;
5898;SDS011;2975;50.956;6.962;2023-06-14T03:04:02;5.33;;;3.87;;
5898;SDS011;2975;50.956;6.962;2023-06-14T03:06:31;6.93;;;4.03;;
5898;SDS011;2975;50.956;6.962;2023-06-14T03:08:57;4.10;;;3.50;;
5898;SDS011;2975;50.956;6.962;2023-06-14T03:11:25;6.53;;;4.20;;
5898;SDS011;2975;50.956;6.962;2023-06-14T03:13:51;7.33;;;4.13;;
5898;SDS011;2975;50.956;6.962;2023-06-14T03:16:17;10.27;;;3.90;;
5898;SDS011;2975;50.956;6.962;2023-06-14T03:18:46;4.33;;;3.90;;
5898;SDS011;2975;50.956;6.962;2023-06-14T03:21:20;7.20;;;4.27;;
5898;SDS011;2975;50.956;6.962;2023-06-14T03:23:46;7.70;;;4.00;;
5898;SDS011;2975;50.956;6.962;2023-06-14T03:26:13;4.53;;;3.53;;
5898;SDS011;2975;50.956;6.962;2023-06-14T03:28:42;7.37;;;3.50;;
5898;SDS011;2975;50.956;6.962;2023-06-14T03:31:09;6.17;;;4.00;;
5898;SDS011;2975;50.956;6.962;2023-06-14T03:33:34;5.63;;;3.60;;
5898;SDS011;2975;50.956;6.962;2023-06-14T03:36:01;4.30;;;3.80;;
5898;SDS011;2975;50.956;6.962;2023-06-14T03:38:27;8.47;;;3.50;;
5898;SDS011;2975;50.956;6.962;2023-06-14T03:40:53;5.47;;;3.80;;
5898;SDS011;2975;50.956;6.962;2023-06-14T03:43:19;4.30;;;3.30;;
5898;SDS011;2975;50.956;6.962;2023-06-14T03:45:44;4.87;;;3.70;;
5898;SDS011;2975;50.956;6.962;2023-06-14T03:48:10;4.80;;;3.60;;
5898;SDS011;2975;50.956;6.962;2023-06-14T03:50:36;5.23;;;4.00;;
5898;SDS011;2975;50.956;6.962;2023-06-14T03:53:04;7.33;;;3.37;;
5898;SDS011;2975;50.956;6.962;2023-06-14T03:55:31;6.00;;;3.57;;
5898;SDS011;2975;50.956;6.962;2023-06-14T03:57:58;4.30;;;3.47;;
5898;SDS011;2975;50.956;6.962;2023-06-14T04:00:23;8.50;;;3.57;;
5898;SDS011;2975;50.956;6.962;2023-06-14T04:02:49;5.17;;;3.53;;
5898;SDS011;2975;50.956;6.962;2023-06-14T04:05:15;8.27;;;3.70;;
5898;SDS011;2975;50.956;6.962;2023-06-14T04:07:42;6.33;;;3.30;;
5898;SDS011;2975;50.956;6.962;2023-06-14T04:10:10;5.07;;;3.47;;
5898;SDS011;2975;50.956;6.962;2023-06-14T04:12:37;8.80;;;3.70;;
5898;SDS011;2975;50.956;6.962;2023-06-14T04:15:02;5.83;;;3.73;;
5898;SDS011;2975;50.956;6.962;2023-06-14T04:17:30;7.13;;;3.50;;
5898;SDS011;2975;50.956;6.962;2023-06-14T04:19:58;13.83;;;4.03;;
5898;SDS011;2975;50.956;6.962;2023-06-14T04:22:24;9.80;;;4.23;;
5898;SDS011;2975;50.956;6.962;2023-06-14T04:24:53;16.10;;;4.07;;
5898;SDS011;2975;50.956;6.962;2023-06-14T04:27:21;25.07;;;4.60;;
5898;SDS011;2975;50.956;6.962;2023-06-14T04:29:50;13.23;;;4.00;;
5898;SDS011;2975;50.956;6.962;2023-06-14T04:32:18;5.03;;;3.33;;
5898;SDS011;2975;50.956;6.962;2023-06-14T04:34:43;16.00;;;5.50;;
5898;SDS011;2975;50.956;6.962;2023-06-14T04:37:09;12.37;;;4.17;;
5898;SDS011;2975;50.956;6.962;2023-06-14T04:39:36;11.73;;;4.03;;
5898;SDS011;2975;50.956;6.962;2023-06-14T04:42:02;16.70;;;3.70;;
5898;SDS011;2975;50.956;6.962;2023-06-14T04:44:28;9.63;;;3.80;;
5898;SDS011;2975;50.956;6.962;2023-06-14T04:46:57;7.60;;;3.40;;
5898;SDS011;2975;50.956;6.962;2023-06-14T04:49:23;4.70;;;3.20;;
5898;SDS011;2975;50.956;6.962;2023-06-14T04:51:49;5.97;;;3.40;;
5898;SDS011;2975;50.956;6.962;2023-06-14T04:54:22;5.15;;;3.03;;
5898;SDS011;2975;50.956;6.962;2023-06-14T04:56:50;6.72;;;3.17;;
5898;SDS011;2975;50.956;6.962;2023-06-14T04:59:16;5.90;;;3.30;;
5898;SDS011;2975;50.956;6.962;2023-06-14T05:01:42;8.50;;;3.30;;
5898;SDS011;2975;50.956;6.962;2023-06-14T05:04:15;5.95;;;3.10;;
5898;SDS011;2975;50.956;6.962;2023-06-14T05:06:44;5.03;;;3.22;;
5898;SDS011;2975;50.956;6.962;2023-06-14T05:09:11;5.68;;;3.10;;
5898;SDS011;2975;50.956;6.962;2023-06-14T05:11:38;6.53;;;3.10;;
5898;SDS011;2975;50.956;6.962;2023-06-14T05:14:03;4.93;;;3.22;;
5898;SDS011;2975;50.956;6.962;2023-06-14T05:16:29;5.25;;;3.50;;
5898;SDS011;2975;50.956;6.962;2023-06-14T05:18:55;9.98;;;3.70;;
5898;SDS011;2975;50.956;6.962;2023-06-14T05:21:20;6.03;;;3.13;;
5898;SDS011;2975;50.956;6.962;2023-06-14T05:23:46;3.72;;;3.03;;
5898;SDS011;2975;50.956;6.962;2023-06-14T05:26:12;5.53;;;3.20;;
5898;SDS011;2975;50.956;6.962;2023-06-14T05:28:37;5.10;;;3.20;;
5898;SDS011;2975;50.956;6.962;2023-06-14T05:31:03;4.70;;;3.15;;
5898;SDS011;2975;50.956;6.962;2023-06-14T05:33:29;7.80;;;3.30;;
5898;SDS011;2975;50.956;6.962;2023-06-14T05:35:55;5.63;;;2.90;;
5898;SDS011;2975;50.956;6.962;2023-06-14T05:38:20;5.07;;;3.03;;
5898;SDS011;2975;50.956;6.962;2023-06-14T05:40:46;5.15;;;3.65;;
5898;SDS011;2975;50.956;6.962;2023-06-14T05:43:11;3.33;;;3.03;;
5898;SDS011;2975;50.956;6.962;2023-06-14T05:45:37;4.47;;;2.90;;
5898;SDS011;2975;50.956;6.962;2023-06-14T05:48:03;3.95;;;2.85;;
5898;SDS011;2975;50.956;6.962;2023-06-14T05:50:29;4.13;;;3.17;;
5898;SDS011;2975;50.956;6.962;2023-06-14T05:52:55;4.50;;;2.72;;
5898;SDS011;2975;50.956;6.962;2023-06-14T05:55:20;5.70;;;2.83;;
5898;SDS011;2975;50.956;6.962;2023-06-14T05:57:46;3.38;;;2.72;;
5898;SDS011;2975;50.956;6.962;2023-06-14T06:00:13;14.77;;;4.40;;
5898;SDS011;2975;50.956;6.962;2023-06-14T06:02:41;6.07;;;3.10;;
5898;SDS011;2975;50.956;6.962;2023-06-14T06:05:11;3.92;;;2.75;;
5898;SDS011;2975;50.956;6.962;2023-06-14T06:07:37;4.32;;;2.70;;
5898;SDS011;2975;50.956;6.962;2023-06-14T06:10:03;4.10;;;2.33;;
5898;SDS011;2975;50.956;6.962;2023-06-14T06:12:30;5.00;;;2.90;;
5898;SDS011;2975;50.956;6.962;2023-06-14T06:14:55;2.85;;;2.63;;
5898;SDS011;2975;50.956;6.962;2023-06-14T06:17:21;5.65;;;2.63;;
5898;SDS011;2975;50.956;6.962;2023-06-14T06:19:47;8.73;;;3.78;;
5898;SDS011;2975;50.956;6.962;2023-06-14T06:22:12;2.53;;;2.28;;
5898;SDS011;2975;50.956;6.962;2023-06-14T06:24:38;3.42;;;2.65;;
5898;SDS011;2975;50.956;6.962;2023-06-14T06:27:04;5.78;;;3.25;;
5898;SDS011;2975;50.956;6.962;2023-06-14T06:29:30;4.95;;;3.13;;
5898;SDS011;2975;50.956;6.962;2023-06-14T06:31:55;7.82;;;2.63;;
5898;SDS011;2975;50.956;6.962;2023-06-14T06:34:21;4.80;;;2.75;;
5898;SDS011;2975;50.956;6.962;2023-06-14T06:36:47;3.35;;;2.90;;
5898;SDS011;2975;50.956;6.962;2023-06-14T06:39:13;3.35;;;2.25;;
5898;SDS011;2975;50.956;6.962;2023-06-14T06:41:40;6.03;;;2.30;;
5898;SDS011;2975;50.956;6.962;2023-06-14T06:44:06;3.38;;;2.75;;
5898;SDS011;2975;50.956;6.962;2023-06-14T06:46:32;5.13;;;2.35;;
5898;SDS011;2975;50.956;6.962;2023-06-14T06:48:58;8.80;;;2.50;;
5898;SDS011;2975;50.956;6.962;2023-06-14T06:51:25;5.18;;;2.30;;
5898;SDS011;2975;50.956;6.962;2023-06-14T06:53:53;3.22;;;2.72;;
5898;SDS011;2975;50.956;6.962;2023-06-14T06:56:19;5.90;;;2.35;;
5898;SDS011;2975;50.956;6.962;2023-06-14T06:58:48;4.97;;;2.70;;
5898;SDS011;2975;50.956;6.962;2023-06-14T07:01:14;6.82;;;2.65;;
5898;SDS011;2975;50.956;6.962;2023-06-14T07:03:40;8.63;;;2.85;;
5898;SDS011;2975;50.956;6.962;2023-06-14T07:06:06;3.78;;;2.40;;
5898;SDS011;2975;50.956;6.962;2023-06-14T07:08:32;3.60;;;2.20;;
5898;SDS011;2975;50.956;6.962;2023-06-14T07:10:57;3.92;;;2.10;;
5898;SDS011;2975;50.956;6.962;2023-06-14T07:13:23;5.78;;;2.20;;
5898;SDS011;2975;50.956;6.962;2023-06-14T07:15:49;5.35;;;2.72;;
5898;SDS011;2975;50.956;6.962;2023-06-14T07:18:14;4.40;;;2.20;;
5898;SDS011;2975;50.956;6.962;2023-06-14T07:20:40;3.97;;;2.30;;
5898;SDS011;2975;50.956;6.962;2023-06-14T07:23:07;6.20;;;2.28;;
5898;SDS011;2975;50.956;6.962;2023-06-14T07:25:33;7.10;;;2.40;;
5898;SDS011;2975;50.956;6.962;2023-06-14T07:27:58;2.63;;;2.25;;
5898;SDS011;2975;50.956;6.962;2023-06-14T07:30:24;3.63;;;2.70;;
5898;SDS011;2975;50.956;6.962;2023-06-14T07:32:52;6.63;;;2.42;;
5898;SDS011;2975;50.956;6.962;2023-06-14T07:35:19;3.08;;;1.95;;
5898;SDS011;2975;50.956;6.962;2023-06-14T07:37:44;7.40;;;2.40;;
5898;SDS011;2975;50.956;6.962;2023-06-14T07:40:12;2.45;;;1.83;;
5898;SDS011;2975;50.956;6.962;2023-06-14T07:42:38;2.45;;;2.20;;
5898;SDS011;2975;50.956;6.962;2023-06-14T07:45:04;4.10;;;1.92;;
5898;SDS011;2975;50.956;6.962;2023-06-14T07:47:31;4.72;;;2.10;;
5898;SDS011;2975;50.956;6.962;2023-06-14T07:49:57;2.28;;;2.00;;
5898;SDS011;2975;50.956;6.962;2023-06-14T07:52:22;2.17;;;1.85;;
5898;SDS011;2975;50.956;6.962;2023-06-14T07:54:48;2.58;;;1.90;;
5898;SDS011;2975;50.956;6.962;2023-06-14T07:57:14;4.82;;;1.80;;
5898;SDS011;2975;50.956;6.962;2023-06-14T07:59:39;4.90;;;1.98;;
5898;SDS011;2975;50.956;6.962;2023-06-14T08:02:05;1.70;;;1.60;;
5898;SDS011;2975;50.956;6.962;2023-06-14T08:04:31;6.22;;;1.98;;
5898;SDS011;2975;50.956;6.962;2023-06-14T08:06:57;3.38;;;1.45;;
5898;SDS011;2975;50.956;6.962;2023-06-14T08:09:23;3.08;;;1.67;;
5898;SDS011;2975;50.956;6.962;2023-06-14T08:11:50;2.55;;;1.63;;
5898;SDS011;2975;50.956;6.962;2023-06-14T08:14:15;1.65;;;1.25;;
5898;SDS011;2975;50.956;6.962;2023-06-14T08:16:41;1.38;;;1.27;;
5898;SDS011;2975;50.956;6.962;2023-06-14T08:19:07;3.17;;;1.60;;
5898;SDS011;2975;50.956;6.962;2023-06-14T08:21:32;2.45;;;1.10;;
5898;SDS011;2975;50.956;6.962;2023-06-14T08:23:58;1.30;;;1.20;;
5898;SDS011;2975;50.956;6.962;2023-06-14T08:26:24;1.50;;;1.40;;
5898;SDS011;2975;50.956;6.962;2023-06-14T08:28:54;2.03;;;1.45;;
5898;SDS011;2975;50.956;6.962;2023-06-14T08:31:20;2.22;;;1.67;;
5898;SDS011;2975;50.956;6.962;2023-06-14T08:33:46;3.30;;;1.65;;
5898;SDS011;2975;50.956;6.962;2023-06-14T08:36:12;2.88;;;1.35;;
5898;SDS011;2975;50.956;6.962;2023-06-14T08:38:38;1.83;;;1.40;;
5898;SDS011;2975;50.956;6.962;2023-06-14T08:41:04;2.30;;;1.60;;
5898;SDS011;2975;50.956;6.962;2023-06-14T08:43:33;2.20;;;1.27;;
5898;SDS011;2975;50.956;6.962;2023-06-14T08:46:03;2.70;;;1.50;;
5898;SDS011;2975;50.956;6.962;2023-06-14T08:48:30;2.15;;;1.50;;
5898;SDS011;2975;50.956;6.962;2023-06-14T08:51:02;1.95;;;1.60;;
5898;SDS011;2975;50.956;6.962;2023-06-14T08:53:30;1.90;;;1.23;;
5898;SDS011;2975;50.956;6.962;2023-06-14T08:55:57;1.63;;;1.52;;
5898;SDS011;2975;50.956;6.962;2023-06-14T08:58:26;1.80;;;1.58;;
5898;SDS011;2975;50.956;6.962;2023-06-14T09:00:54;1.75;;;1.60;;
5898;SDS011;2975;50.956;6.962;2023-06-14T09:03:21;2.95;;;1.38;;
5898;SDS011;2975;50.956;6.962;2023-06-14T09:05:48;1.92;;;1.50;;
5898;SDS011;2975;50.956;6.962;2023-06-14T09:08:15;1.95;;;1.40;;
5898;SDS011;2975;50.956;6.962;2023-06-14T09:10:41;1.65;;;1.52;;
5898;SDS011;2975;50.956;6.962;2023-06-14T09:13:06;5.65;;;1.55;;
5898;SDS011;2975;50.956;6.962;2023-06-14T09:15:33;5.88;;;1.42;;
5898;SDS011;2975;50.956;6.962;2023-06-14T09:18:03;4.63;;;1.60;;
5898;SDS011;2975;50.956;6.962;2023-06-14T09:20:29;1.65;;;1.50;;
5898;SDS011;2975;50.956;6.962;2023-06-14T09:22:55;3.17;;;1.42;;
5898;SDS011;2975;50.956;6.962;2023-06-14T09:25:21;2.30;;;1.30;;
5898;SDS011;2975;50.956;6.962;2023-06-14T09:27:47;2.58;;;1.60;;
5898;SDS011;2975;50.956;6.962;2023-06-14T09:30:13;2.08;;;1.55;;
5898;SDS011;2975;50.956;6.962;2023-06-14T09:32:39;3.10;;;1.52;;
5898;SDS011;2975;50.956;6.962;2023-06-14T09:35:06;1.73;;;1.63;;
5898;SDS011;2975;50.956;6.962;2023-06-14T09:37:33;3.53;;;2.00;;
5898;SDS011;2975;50.956;6.962;2023-06-14T09:39:59;2.60;;;1.35;;
5898;SDS011;2975;50.956;6.962;2023-06-14T09:42:25;2.35;;;1.70;;
5898;SDS011;2975;50.956;6.962;2023-06-14T09:44:53;2.83;;;1.35;;
5898;SDS011;2975;50.956;6.962;2023-06-14T09:47:19;3.00;;;1.42;;
5898;SDS011;2975;50.956;6.962;2023-06-14T09:49:46;1.50;;;1.40;;
5898;SDS011;2975;50.956;6.962;2023-06-14T09:52:18;2.53;;;1.27;;
5898;SDS011;2975;50.956;6.962;2023-06-14T09:54:46;2.90;;;1.85;;
5898;SDS011;2975;50.956;6.962;2023-06-14T09:57:14;2.25;;;1.50;;
5898;SDS011;2975;50.956;6.962;2023-06-14T09:59:41;1.58;;;1.48;;
5898;SDS011;2975;50.956;6.962;2023-06-14T10:02:28;1.70;;;1.60;;
5898;SDS011;2975;50.956;6.962;2023-06-14T10:10:13;3.58;;;1.55;;
5898;SDS011;2975;50.956;6.962;2023-06-14T10:12:39;1.35;;;1.27;;
5898;SDS011;2975;50.956;6.962;2023-06-14T10:15:07;2.95;;;1.45;;
5898;SDS011;2975;50.956;6.962;2023-06-14T10:17:38;3.10;;;2.05;;
5898;SDS011;2975;50.956;6.962;2023-06-14T10:23:08;2.97;;;1.92;;
5898;SDS011;2975;50.956;6.962;2023-06-14T10:25:38;2.53;;;1.60;;
5898;SDS011;2975;50.956;6.962;2023-06-14T10:28:20;2.05;;;1.73;;
5898;SDS011;2975;50.956;6.962;2023-06-14T10:31:05;2.25;;;1.63;;
5898;SDS011;2975;50.956;6.962;2023-06-14T10:33:36;4.20;;;1.50;;
5898;SDS011;2975;50.956;6.962;2023-06-14T10:36:28;2.88;;;1.50;;
5898;SDS011;2975;50.956;6.962;2023-06-14T10:39:17;4.50;;;2.50;;
5898;SDS011;2975;50.956;6.962;2023-06-14T10:41:54;2.83;;;2.05;;
5898;SDS011;2975;50.956;6.962;2023-06-14T10:46:47;4.80;;;1.45;;
5898;SDS011;2975;50.956;6.962;2023-06-14T10:49:16;2.85;;;1.38;;
5898;SDS011;2975;50.956;6.962;2023-06-14T10:51:46;2.17;;;1.63;;
5898;SDS011;2975;50.956;6.962;2023-06-14T10:54:15;2.55;;;1.60;;
5898;SDS011;2975;50.956;6.962;2023-06-14T10:59:14;1.80;;;1.70;;
5898;SDS011;2975;50.956;6.962;2023-06-14T11:04:46;3.22;;;1.45;;
5898;SDS011;2975;50.956;6.962;2023-06-14T11:12:48;3.53;;;1.63;;
5898;SDS011;2975;50.956;6.962;2023-06-14T11:15:16;3.13;;;1.58;;
5898;SDS011;2975;50.956;6.962;2023-06-14T11:17:50;2.38;;;1.90;;
5898;SDS011;2975;50.956;6.962;2023-06-14T11:20:18;2.35;;;1.55;;
5898;SDS011;2975;50.956;6.962;2023-06-14T11:22:44;2.78;;;1.40;;
5898;SDS011;2975;50.956;6.962;2023-06-14T11:25:13;2.63;;;1.85;;
5898;SDS011;2975;50.956;6.962;2023-06-14T11:27:41;2.72;;;1.80;;
5898;SDS011;2975;50.956;6.962;2023-06-14T11:30:08;4.80;;;1.60;;
5898;SDS011;2975;50.956;6.962;2023-06-14T11:32:35;3.28;;;1.70;;
5898;SDS011;2975;50.956;6.962;2023-06-14T11:35:02;4.80;;;3.28;;
5898;SDS011;2975;50.956;6.962;2023-06-14T11:37:29;2.78;;;1.80;;
5898;SDS011;2975;50.956;6.962;2023-06-14T11:39:56;2.42;;;1.92;;
5898;SDS011;2975;50.956;6.962;2023-06-14T11:42:28;3.65;;;1.67;;
5898;SDS011;2975;50.956;6.962;2023-06-14T11:44:55;1.50;;;1.40;;
5898;SDS011;2975;50.956;6.962;2023-06-14T11:47:21;3.28;;;1.92;;
5898;SDS011;2975;50.956;6.962;2023-06-14T11:49:47;2.10;;;1.90;;
5898;SDS011;2975;50.956;6.962;2023-06-14T11:52:13;2.53;;;1.60;;
5898;SDS011;2975;50.956;6.962;2023-06-14T11:54:39;1.95;;;1.77;;
5898;SDS011;2975;50.956;6.962;2023-06-14T11:57:06;1.65;;;1.40;;
5898;SDS011;2975;50.956;6.962;2023-06-14T11:59:37;2.78;;;1.80;;
5898;SDS011;2975;50.956;6.962;2023-06-14T12:02:04;3.53;;;1.60;;
5898;SDS011;2975;50.956;6.962;2023-06-14T12:04:31;2.53;;;1.80;;
5898;SDS011;2975;50.956;6.962;2023-06-14T12:06:57;4.38;;;1.40;;
5898;SDS011;2975;50.956;6.962;2023-06-14T12:09:34;3.38;;;1.55;;
5898;SDS011;2975;50.956;6.962;2023-06-14T12:12:00;1.52;;;1.23;;
5898;SDS011;2975;50.956;6.962;2023-06-14T12:14:30;2.58;;;1.30;;
5898;SDS011;2975;50.956;6.962;2023-06-14T12:17:05;4.25;;;1.70;;
5898;SDS011;2975;50.956;6.962;2023-06-14T12:19:32;2.20;;;1.20;;
5898;SDS011;2975;50.956;6.962;2023-06-14T12:21:59;3.72;;;2.47;;
5898;SDS011;2975;50.956;6.962;2023-06-14T12:24:29;1.88;;;1.73;;
5898;SDS011;2975;50.956;6.962;2023-06-14T12:26:56;2.83;;;1.48;;
5898;SDS011;2975;50.956;6.962;2023-06-14T12:29:24;2.10;;;1.42;;
5898;SDS011;2975;50.956;6.962;2023-06-14T12:31:50;1.45;;;1.35;;
5898;SDS011;2975;50.956;6.962;2023-06-14T12:34:18;1.60;;;1.50;;
5898;SDS011;2975;50.956;6.962;2023-06-14T12:36:44;1.45;;;1.15;;
5898;SDS011;2975;50.956;6.962;2023-06-14T12:39:11;1.95;;;1.50;;
5898;SDS011;2975;50.956;6.962;2023-06-14T12:41:37;1.75;;;1.25;;
5898;SDS011;2975;50.956;6.962;2023-06-14T12:44:03;21.27;;;2.58;;
5898;SDS011;2975;50.956;6.962;2023-06-14T12:46:30;1.52;;;1.42;;
5898;SDS011;2975;50.956;6.962;2023-06-14T12:48:56;1.33;;;1.20;;
5898;SDS011;2975;50.956;6.962;2023-06-14T12:51:22;3.95;;;0.95;;
5898;SDS011;2975;50.956;6.962;2023-06-14T12:53:48;10.32;;;1.50;;
5898;SDS011;2975;50.956;6.962;2023-06-14T12:56:14;1.58;;;1.48;;
5898;SDS011;2975;50.956;6.962;2023-06-14T12:58:40;2.03;;;1.20;;
5898;SDS011;2975;50.956;6.962;2023-06-14T13:01:06;1.20;;;1.10;;
5898;SDS011;2975;50.956;6.962;2023-06-14T13:03:32;2.78;;;1.27;;
5898;SDS011;2975;50.956;6.962;2023-06-14T13:05:59;1.95;;;1.63;;
5898;SDS011;2975;50.956;6.962;2023-06-14T13:08:25;1.73;;;1.30;;
5898;SDS011;2975;50.956;6.962;2023-06-14T13:10:51;2.22;;;1.20;;
5898;SDS011;2975;50.956;6.962;2023-06-14T13:13:17;1.40;;;1.30;;
5898;SDS011;2975;50.956;6.962;2023-06-14T13:15:42;1.25;;;1.15;;
5898;SDS011;2975;50.956;6.962;2023-06-14T13:18:10;3.97;;;1.70;;
5898;SDS011;2975;50.956;6.962;2023-06-14T13:20:38;1.48;;;1.30;;
5898;SDS011;2975;50.956;6.962;2023-06-14T13:23:03;1.52;;;1.30;;
5898;SDS011;2975;50.956;6.962;2023-06-14T13:25:31;2.00;;;1.20;;
5898;SDS011;2975;50.956;6.962;2023-06-14T13:27:56;2.47;;;1.30;;
5898;SDS011;2975;50.956;6.962;2023-06-14T13:30:22;2.10;;;1.10;;
5898;SDS011;2975;50.956;6.962;2023-06-14T13:32:47;1.25;;;1.20;;
5898;SDS011;2975;50.956;6.962;2023-06-14T13:35:13;0.80;;;0.80;;
5898;SDS011;2975;50.956;6.962;2023-06-14T13:37:39;2.08;;;1.40;;
5898;SDS011;2975;50.956;6.962;2023-06-14T13:40:05;2.13;;;1.20;;
5898;SDS011;2975;50.956;6.962;2023-06-14T13:42:31;1.65;;;1.50;;
5898;SDS011;2975;50.956;6.962;2023-06-14T13:44:58;1.38;;;1.27;;
5898;SDS011;2975;50.956;6.962;2023-06-14T13:47:24;2.33;;;1.30;;
5898;SDS011;2975;50.956;6.962;2023-06-14T13:49:49;3.45;;;1.58;;
5898;SDS011;2975;50.956;6.962;2023-06-14T13:52:15;1.75;;;1.30;;
5898;SDS011;2975;50.956;6.962;2023-06-14T13:54:41;1.60;;;1.50;;
5898;SDS011;2975;50.956;6.962;2023-06-14T13:57:07;2.15;;;1.50;;
5898;SDS011;2975;50.956;6.962;2023-06-14T13:59:32;6.00;;;1.48;;
5898;SDS011;2975;50.956;6.962;2023-06-14T14:01:58;2.33;;;1.70;;
5898;SDS011;2975;50.956;6.962;2023-06-14T14:04:24;1.67;;;1.27;;
5898;SDS011;2975;50.956;6.962;2023-06-14T14:06:49;4.22;;;1.40;;
5898;SDS011;2975;50.956;6.962;2023-06-14T14:09:15;1.52;;;1.42;;
5898;SDS011;2975;50.956;6.962;2023-06-14T14:11:40;2.13;;;1.52;;
5898;SDS011;2975;50.956;6.962;2023-06-14T14:14:07;3.05;;;1.65;;
5898;SDS011;2975;50.956;6.962;2023-06-14T14:16:33;2.70;;;1.30;;
5898;SDS011;2975;50.956;6.962;2023-06-14T14:18:59;1.33;;;1.23;;
5898;SDS011;2975;50.956;6.962;2023-06-14T14:21:26;2.60;;;1.50;;
5898;SDS011;2975;50.956;6.962;2023-06-14T14:23:52;4.55;;;1.55;;
5898;SDS011;2975;50.956;6.962;2023-06-14T14:26:18;2.03;;;1.50;;
5898;SDS011;2975;50.956;6.962;2023-06-14T14:28:43;1.50;;;1.38;;
5898;SDS011;2975;50.956;6.962;2023-06-14T14:31:09;5.75;;;2.15;;
5898;SDS011;2975;50.956;6.962;2023-06-14T14:33:35;2.38;;;1.30;;
5898;SDS011;2975;50.956;6.962;2023-06-14T14:36:00;4.00;;;1.40;;
5898;SDS011;2975;50.956;6.962;2023-06-14T14:38:28;2.08;;;1.40;;
5898;SDS011;2975;50.956;6.962;2023-06-14T14:40:54;2.97;;;1.70;;
5898;SDS011;2975;50.956;6.962;2023-06-14T14:43:20;1.85;;;1.30;;
5898;SDS011;2975;50.956;6.962;2023-06-14T14:45:45;2.92;;;1.70;;
5898;SDS011;2975;50.956;6.962;2023-06-14T14:48:11;1.70;;;1.60;;
5898;SDS011;2975;50.956;6.962;2023-06-14T14:50:37;5.95;;;1.58;;
5898;SDS011;2975;50.956;6.962;2023-06-14T14:53:02;4.20;;;1.60;;
5898;SDS011;2975;50.956;6.962;2023-06-14T14:55:28;2.40;;;1.80;;
5898;SDS011;2975;50.956;6.962;2023-06-14T14:57:53;2.35;;;1.50;;
5898;SDS011;2975;50.956;6.962;2023-06-14T15:00:19;1.80;;;1.50;;
5898;SDS011;2975;50.956;6.962;2023-06-14T15:02:45;4.00;;;1.83;;
5898;SDS011;2975;50.956;6.962;2023-06-14T15:05:10;2.22;;;1.50;;
5898;SDS011;2975;50.956;6.962;2023-06-14T15:07:36;2.10;;;1.30;;
5898;SDS011;2975;50.956;6.962;2023-06-14T15:10:05;3.53;;;1.40;;
5898;SDS011;2975;50.956;6.962;2023-06-14T15:12:31;1.52;;;1.40;;
5898;SDS011;2975;50.956;6.962;2023-06-14T15:14:57;2.72;;;1.55;;
5898;SDS011;2975;50.956;6.962;2023-06-14T15:17:22;2.95;;;1.40;;
5898;SDS011;2975;50.956;6.962;2023-06-14T15:19:49;2.00;;;1.50;;
5898;SDS011;2975;50.956;6.962;2023-06-14T15:22:15;2.17;;;1.48;;
5898;SDS011;2975;50.956;6.962;2023-06-14T15:24:41;2.35;;;1.48;;
5898;SDS011;2975;50.956;6.962;2023-06-14T15:27:07;2.13;;;1.60;;
5898;SDS011;2975;50.956;6.962;2023-06-14T15:29:33;2.50;;;1.48;;
5898;SDS011;2975;50.956;6.962;2023-06-14T15:32:00;2.10;;;1.55;;
5898;SDS011;2975;50.956;6.962;2023-06-14T15:34:26;2.45;;;1.25;;
5898;SDS011;2975;50.956;6.962;2023-06-14T15:36:52;2.63;;;1.70;;